createdAt,value
2018-04-16T00:01:52.261Z,100600.27
2018-04-16T00:04:18.056Z,100597.88
2018-04-16T00:06:43.870Z,100597.63
2018-04-16T00:09:09.675Z,100592.38
2018-04-16T00:11:35.468Z,100589.67
2018-04-16T00:14:01.285Z,100588.69
2018-04-16T00:16:27.098Z,100589.81
2018-04-16T00:18:52.913Z,100587.94
2018-04-16T00:21:18.726Z,100584.28
2018-04-16T00:23:44.545Z,100583.29
2018-04-16T00:26:10.317Z,100579.41
2018-04-16T00:28:36.122Z,100587.81
2018-04-16T00:31:01.955Z,100590.34
2018-04-16T00:33:33.989Z,100582.15
2018-04-16T00:36:06.048Z,100570.67
2018-04-16T00:38:37.945Z,100565.15
2018-04-16T00:41:10.043Z,100559.47
2018-04-16T00:43:42.017Z,100562.91
2018-04-16T00:46:13.768Z,100564.29
2018-04-16T00:48:45.672Z,100557.97
2018-04-16T00:51:17.620Z,100555.44
2018-04-16T00:54:02.155Z,100556.66
2018-04-16T00:59:31.640Z,100559.37
2018-04-16T01:02:03.520Z,100565.17
2018-04-16T01:04:35.510Z,100567.77
2018-04-16T01:07:07.504Z,100562.90
2018-04-16T01:09:39.513Z,100570.02
2018-04-16T01:12:11.345Z,100566.66
2018-04-16T01:14:43.356Z,100566.13
2018-04-16T01:17:15.086Z,100561.35
2018-04-16T01:19:47.150Z,100555.93
2018-04-16T01:22:19.069Z,100548.55
2018-04-16T01:24:51.051Z,100557.76
2018-04-16T01:27:23.031Z,100545.29
2018-04-16T01:29:55.094Z,100538.95
2018-04-16T01:32:27.161Z,100529.46
2018-04-16T01:34:58.957Z,100528.56
2018-04-16T01:37:30.977Z,100537.63
2018-04-16T01:40:02.992Z,100529.22
2018-04-16T01:45:29.870Z,100518.84
2018-04-16T01:48:01.700Z,100522.50
2018-04-16T01:50:33.629Z,100527.33
2018-04-16T01:53:05.604Z,100524.41
2018-04-16T01:55:37.622Z,100517.42
2018-04-16T01:58:09.489Z,100527.94
2018-04-16T02:00:41.407Z,100541.53
2018-04-16T02:03:13.378Z,100538.22
2018-04-16T02:05:45.330Z,100541.19
2018-04-16T02:08:17.250Z,100544.42
2018-04-16T02:10:49.272Z,100540.20
2018-04-16T02:13:21.054Z,100542.14
2018-04-16T02:15:52.869Z,100555.89
2018-04-16T02:18:24.763Z,100560.62
2018-04-16T02:20:56.646Z,100563.52
2018-04-16T02:23:28.498Z,100560.46
2018-04-16T02:26:00.438Z,100553.20
2018-04-16T02:28:32.305Z,100544.03
2018-04-16T02:31:04.251Z,100549.50
2018-04-16T02:33:36.333Z,100554.67
2018-04-16T02:36:08.326Z,100557.98
2018-04-16T02:38:40.193Z,100558.80
2018-04-16T02:41:12.089Z,100561.95
2018-04-16T02:43:43.897Z,100551.83
2018-04-16T02:46:15.907Z,100556.05
2018-04-16T02:48:47.924Z,100549.24
2018-04-16T02:51:19.915Z,100545.37
2018-04-16T02:53:51.917Z,100549.98
2018-04-16T02:56:23.740Z,100554.80
2018-04-16T02:58:55.746Z,100560.92
2018-04-16T03:01:27.782Z,100564.16
2018-04-16T03:03:59.729Z,100562.22
2018-04-16T03:06:31.792Z,100552.56
2018-04-16T03:11:58.476Z,100547.39
2018-04-16T03:14:30.509Z,100548.59
2018-04-16T03:17:02.303Z,100532.73
2018-04-16T03:19:34.375Z,100527.61
2018-04-16T03:22:06.269Z,100539.23
2018-04-16T03:24:38.106Z,100537.84
2018-04-16T03:27:10.094Z,100537.63
2018-04-16T03:29:41.902Z,100539.27
2018-04-16T03:35:12.971Z,100541.69
2018-04-16T03:37:45.025Z,100544.95
2018-04-16T03:40:17.043Z,100547.24
2018-04-16T03:42:49.058Z,100562.63
2018-04-16T03:45:21.121Z,100567.02
2018-04-16T03:47:53.185Z,100562.72
2018-04-16T03:50:25.371Z,100567.84
2018-04-16T03:52:57.218Z,100573.87
2018-04-16T03:55:29.165Z,100562.23
2018-04-16T03:57:54.965Z,100558.66
2018-04-16T04:00:21.041Z,100541.20
2018-04-16T04:02:47.623Z,100542.77
2018-04-16T04:05:13.452Z,100537.72
2018-04-16T04:07:39.241Z,100543.72
2018-04-16T04:10:05.033Z,100545.27
2018-04-16T04:12:31.581Z,100551.47
2018-04-16T04:14:57.433Z,100558.01
2018-04-16T04:17:23.217Z,100570.81
2018-04-16T04:19:49.020Z,100576.80
2018-04-16T04:22:14.821Z,100581.42
2018-04-16T04:24:53.024Z,100581.89
2018-04-16T04:27:31.197Z,100587.23
2018-04-16T04:30:09.340Z,100586.20
2018-04-16T04:32:35.122Z,100601.22
2018-04-16T04:35:00.904Z,100596.73
2018-04-16T04:37:26.723Z,100596.73
2018-04-16T04:39:52.530Z,100601.45
2018-04-16T04:42:18.367Z,100611.52
2018-04-16T04:44:44.160Z,100611.92
2018-04-16T04:47:09.956Z,100618.26
2018-04-16T04:49:35.762Z,100617.14
2018-04-16T04:52:01.542Z,100625.76
2018-04-16T04:54:27.337Z,100625.46
2018-04-16T04:56:53.163Z,100611.70
2018-04-16T04:59:18.953Z,100621.41
2018-04-16T05:01:44.750Z,100621.02
2018-04-16T05:04:10.541Z,100619.98
2018-04-16T05:06:36.430Z,100621.72
2018-04-16T05:09:02.226Z,100614.17
2018-04-16T05:11:28.024Z,100625.85
2018-04-16T05:13:54.056Z,100628.14
2018-04-16T05:16:19.843Z,100630.69
2018-04-16T05:18:45.630Z,100635.13
2018-04-16T05:21:11.434Z,100640.44
2018-04-16T05:23:37.232Z,100637.89
2018-04-16T05:26:03.037Z,100646.69
2018-04-16T05:28:28.830Z,100647.33
2018-04-16T05:30:54.618Z,100641.91
2018-04-16T05:33:20.443Z,100651.27
2018-04-16T05:35:46.225Z,100646.95
2018-04-16T05:38:12.014Z,100643.84
2018-04-16T05:40:37.827Z,100649.58
2018-04-16T05:43:03.654Z,100651.61
2018-04-16T05:45:29.469Z,100653.16
2018-04-16T05:47:55.245Z,100648.77
2018-04-16T05:50:21.047Z,100653.47
2018-04-16T05:52:46.889Z,100648.38
2018-04-16T05:55:12.675Z,100646.91
2018-04-16T05:57:38.470Z,100652.05
2018-04-16T06:00:04.407Z,100651.02
2018-04-16T06:02:30.208Z,100644.23
2018-04-16T06:04:55.997Z,100656.72
2018-04-16T06:07:21.790Z,100652.23
2018-04-16T06:09:47.886Z,100651.97
2018-04-16T06:12:13.726Z,100659.95
2018-04-16T06:14:39.527Z,100662.67
2018-04-16T06:17:05.368Z,100658.78
2018-04-16T06:19:31.149Z,100655.80
2018-04-16T06:21:56.925Z,100665.26
2018-04-16T06:24:22.710Z,100657.97
2018-04-16T06:26:48.503Z,100657.78
2018-04-16T06:29:14.457Z,100664.56
2018-04-16T06:31:40.313Z,100667.44
2018-04-16T06:34:06.121Z,100679.19
2018-04-16T06:36:31.921Z,100683.38
2018-04-16T06:38:57.714Z,100678.78
2018-04-16T06:41:23.504Z,100680.95
2018-04-16T06:43:49.298Z,100678.52
2018-04-16T06:46:15.123Z,100689.14
2018-04-16T06:48:40.909Z,100680.53
2018-04-16T06:51:06.813Z,100681.79
2018-04-16T06:53:32.621Z,100689.39
2018-04-16T06:55:58.430Z,100678.42
2018-04-16T06:58:24.556Z,100679.15
2018-04-16T07:00:50.700Z,100678.97
2018-04-16T07:03:16.514Z,100681.72
2018-04-16T07:05:42.444Z,100672.33
2018-04-16T07:08:08.256Z,100678.68
2018-04-16T07:10:34.081Z,100671.23
2018-04-16T07:12:59.970Z,100669.39
2018-04-16T07:15:25.775Z,100684.86
2018-04-16T07:17:51.592Z,100677.33
2018-04-16T07:20:17.477Z,100677.50
2018-04-16T07:22:43.275Z,100688.80
2018-04-16T07:25:09.063Z,100693.86
2018-04-16T07:27:34.854Z,100697.47
2018-04-16T07:30:00.699Z,100701.38
2018-04-16T07:32:26.495Z,100700.36
2018-04-16T07:34:54.046Z,100707.77
2018-04-16T07:37:20.353Z,100705.05
2018-04-16T07:39:47.004Z,100711.14
2018-04-16T07:42:13.425Z,100719.58
2018-04-16T07:44:40.075Z,100728.33
2018-04-16T07:47:06.297Z,100726.52
2018-04-16T07:49:32.624Z,100726.39
2018-04-16T07:51:59.151Z,100731.75
2018-04-16T07:54:25.061Z,100735.95
2018-04-16T07:56:50.919Z,100737.44
2018-04-16T07:59:17.336Z,100731.77
2018-04-16T08:01:43.235Z,100744.38
2018-04-16T08:04:09.782Z,100746.83
2018-04-16T08:06:36.674Z,100751.52
2018-04-16T08:09:03.246Z,100748.13
2018-04-16T08:11:29.883Z,100756.47
2018-04-16T08:13:56.468Z,100756.86
2018-04-16T08:16:23.095Z,100758.44
2018-04-16T08:18:49.458Z,100754.83
2018-04-16T08:21:16.241Z,100754.13
2018-04-16T08:23:42.711Z,100759.33
2018-04-16T08:26:09.479Z,100754.30
2018-04-16T08:28:36.122Z,100763.25
2018-04-16T08:31:02.793Z,100764.94
2018-04-16T08:33:29.356Z,100769.52
2018-04-16T08:35:55.758Z,100764.28
2018-04-16T08:38:22.136Z,100764.19
2018-04-16T08:40:48.988Z,100758.27
2018-04-16T08:43:14.896Z,100756.70
2018-04-16T08:45:41.274Z,100760.31
2018-04-16T08:48:07.329Z,100758.37
2018-04-16T08:50:34.737Z,100757.78
2018-04-16T08:53:01.482Z,100756.17
2018-04-16T08:55:28.282Z,100748.52
2018-04-16T08:57:54.836Z,100759.47
2018-04-16T09:00:21.475Z,100760.33
2018-04-16T09:02:47.797Z,100758.23
2018-04-16T09:05:14.201Z,100761.59
2018-04-16T09:07:40.730Z,100766.45
2018-04-16T09:10:07.135Z,100774.72
2018-04-16T09:12:33.605Z,100790.96
2018-04-16T09:15:00.301Z,100797.27
2018-04-16T09:17:27.602Z,100793.92
2018-04-16T09:19:54.307Z,100797.93
2018-04-16T09:22:20.153Z,100796.95
2018-04-16T09:24:46.665Z,100790.86
2018-04-16T09:27:12.735Z,100789.28
2018-04-16T09:29:38.583Z,100790.34
2018-04-16T09:32:05.323Z,100782.36
2018-04-16T09:34:31.506Z,100783.94
2018-04-16T09:36:58.198Z,100779.37
2018-04-16T09:39:24.627Z,100782.52
2018-04-16T09:41:51.210Z,100778.15
2018-04-16T09:44:17.929Z,100778.66
2018-04-16T09:46:44.143Z,100776.17
2018-04-16T09:49:10.069Z,100773.85
2018-04-16T09:51:36.673Z,100765.08
2018-04-16T09:54:03.064Z,100769.57
2018-04-16T09:56:28.990Z,100773.70
2018-04-16T09:58:55.395Z,100779.33
2018-04-16T10:01:21.757Z,100775.80
2018-04-16T10:03:48.206Z,100775.81
2018-04-16T10:06:14.651Z,100781.29
2018-04-16T10:08:41.250Z,100779.59
2018-04-16T10:11:08.100Z,100771.23
2018-04-16T10:13:35.061Z,100777.31
2018-04-16T10:16:02.566Z,100777.03
2018-04-16T10:18:28.503Z,100775.12
2018-04-16T10:20:55.196Z,100776.69
2018-04-16T10:23:21.670Z,100778.02
2018-04-16T10:25:48.239Z,100771.94
2018-04-16T10:28:14.417Z,100771.07
2018-04-16T10:30:41.150Z,100760.11
2018-04-16T10:33:07.628Z,100754.72
2018-04-16T10:35:34.087Z,100743.66
2018-04-16T10:38:00.710Z,100745.66
2018-04-16T10:40:27.169Z,100746.78
2018-04-16T10:42:54.138Z,100749.72
2018-04-16T10:45:20.085Z,100750.58
2018-04-16T10:47:46.729Z,100759.59
2018-04-16T10:50:14.213Z,100769.86
2018-04-16T10:52:40.845Z,100772.36
2018-04-16T10:55:07.508Z,100771.27
2018-04-16T10:57:33.733Z,100771.20
2018-04-16T11:00:00.257Z,100767.00
2018-04-16T11:02:26.845Z,100769.40
2018-04-16T11:04:53.732Z,100780.53
2018-04-16T11:07:20.569Z,100781.36
2018-04-16T11:09:47.399Z,100778.83
2018-04-16T11:12:13.753Z,100774.40
2018-04-16T11:14:40.402Z,100774.52
2018-04-16T11:17:06.666Z,100770.27
2018-04-16T11:19:33.144Z,100766.80
2018-04-16T11:21:59.556Z,100772.92
2018-04-16T11:24:26.286Z,100773.09
2018-04-16T11:26:52.924Z,100774.75
2018-04-16T11:29:19.097Z,100769.28
2018-04-16T11:31:45.462Z,100771.38
2018-04-16T11:34:11.371Z,100776.58
2018-04-16T11:36:37.829Z,100773.75
2018-04-16T11:39:04.602Z,100780.97
2018-04-16T11:41:31.086Z,100772.66
2018-04-16T11:43:57.696Z,100769.00
2018-04-16T11:46:24.505Z,100777.67
2018-04-16T11:48:50.362Z,100777.24
2018-04-16T11:51:16.179Z,100773.92
2018-04-16T11:53:41.962Z,100776.41
2018-04-16T11:56:07.855Z,100778.86
2018-04-16T11:58:33.654Z,100786.27
2018-04-16T12:00:59.457Z,100790.08
2018-04-16T12:03:25.271Z,100791.06
2018-04-16T12:05:51.065Z,100792.28
2018-04-16T12:08:16.845Z,100786.29
2018-04-16T12:10:42.646Z,100786.95
2018-04-16T12:13:08.455Z,100791.99
2018-04-16T12:15:34.341Z,100776.01
2018-04-16T12:18:00.518Z,100788.94
2018-04-16T12:20:26.300Z,100783.13
2018-04-16T12:22:52.329Z,100792.52
2018-04-16T12:27:50.774Z,100794.20
2018-04-16T12:30:16.553Z,100787.25
2018-04-16T12:32:42.378Z,100784.63
2018-04-16T12:35:08.186Z,100785.97
2018-04-16T12:37:33.988Z,100784.00
2018-04-16T12:39:59.789Z,100790.95
2018-04-16T12:42:25.626Z,100782.66
2018-04-16T12:44:51.420Z,100777.90
2018-04-16T12:47:17.210Z,100782.69
2018-04-16T12:49:43.285Z,100779.26
2018-04-16T12:52:09.080Z,100782.17
2018-04-16T12:54:34.871Z,100785.85
2018-04-16T12:57:00.672Z,100783.80
2018-04-16T12:59:26.444Z,100782.64
2018-04-16T13:01:52.236Z,100792.44
2018-04-16T13:04:18.054Z,100792.36
2018-04-16T13:06:43.837Z,100790.91
2018-04-16T13:09:09.610Z,100791.66
2018-04-16T13:11:35.649Z,100785.69
2018-04-16T13:14:01.443Z,100788.59
2018-04-16T13:16:27.229Z,100785.44
2018-04-16T13:18:53.036Z,100786.72
2018-04-16T13:21:18.846Z,100793.82
2018-04-16T13:23:44.633Z,100795.14
2018-04-16T13:26:10.426Z,100796.64
2018-04-16T13:28:36.236Z,100798.97
2018-04-16T13:31:02.026Z,100807.22
2018-04-16T13:33:27.845Z,100804.92
2018-04-16T13:35:53.667Z,100806.69
2018-04-16T13:38:19.457Z,100799.64
2018-04-16T13:40:45.238Z,100812.08
2018-04-16T13:43:11.037Z,100814.66
2018-04-16T13:45:36.833Z,100819.00
2018-04-16T13:48:02.625Z,100831.10
2018-04-16T13:50:28.434Z,100835.28
2018-04-16T13:52:54.554Z,100847.04
2018-04-16T13:55:20.367Z,100856.38
2018-04-16T13:57:46.158Z,100860.97
2018-04-16T14:00:12.047Z,100864.77
2018-04-16T14:02:37.850Z,100861.86
2018-04-16T14:05:03.693Z,100863.38
2018-04-16T14:07:29.497Z,100864.86
2018-04-16T14:09:55.276Z,100859.84
2018-04-16T14:12:21.071Z,100869.66
2018-04-16T14:14:46.859Z,100874.53
2018-04-16T14:17:12.660Z,100888.95
2018-04-16T14:19:38.469Z,100874.27
2018-04-16T14:22:04.255Z,100880.61
2018-04-16T14:24:30.044Z,100888.23
2018-04-16T14:26:55.820Z,100883.56
2018-04-16T14:29:21.633Z,100883.78
2018-04-16T14:31:47.429Z,100889.60
2018-04-16T14:34:13.261Z,100892.38
2018-04-16T14:36:39.069Z,100891.41
2018-04-16T14:39:04.885Z,100898.58
2018-04-16T14:41:30.682Z,100901.64
2018-04-16T14:43:56.495Z,100899.64
2018-04-16T14:46:22.287Z,100895.95
2018-04-16T14:48:48.075Z,100899.11
2018-04-16T14:51:13.870Z,100900.41
2018-04-16T14:53:39.670Z,100907.96
2018-04-16T14:56:05.490Z,100899.52
2018-04-16T14:58:31.291Z,100906.09
2018-04-16T15:00:57.077Z,100915.44
2018-04-16T15:03:22.895Z,100918.37
2018-04-16T15:05:48.717Z,100913.25
2018-04-16T15:08:14.521Z,100923.48
2018-04-16T15:10:40.341Z,100936.27
2018-04-16T15:13:06.125Z,100935.58
2018-04-16T15:15:31.924Z,100935.48
2018-04-16T15:17:57.724Z,100937.36
2018-04-16T15:20:23.520Z,100943.17
2018-04-16T15:22:49.306Z,100945.16
2018-04-16T15:25:15.126Z,100946.42
2018-04-16T15:27:41.075Z,100955.56
2018-04-16T15:30:06.874Z,100954.30
2018-04-16T15:32:32.747Z,100955.80
2018-04-16T15:34:58.548Z,100956.03
2018-04-16T15:37:24.364Z,100959.55
2018-04-16T15:39:50.162Z,100964.06
2018-04-16T15:42:15.950Z,100963.39
2018-04-16T15:44:41.735Z,100960.38
2018-04-16T15:47:07.551Z,100961.67
2018-04-16T15:49:33.373Z,100964.83
2018-04-16T15:51:59.172Z,100970.70
2018-04-16T15:54:24.970Z,100964.72
2018-04-16T15:56:50.766Z,100964.38
2018-04-16T15:59:16.573Z,100966.53
2018-04-16T16:01:42.410Z,100969.86
2018-04-16T16:04:08.209Z,100974.92
2018-04-16T16:06:34.022Z,100978.20
2018-04-16T16:08:59.862Z,100975.02
2018-04-16T16:11:25.690Z,100973.99
2018-04-16T16:13:51.517Z,100981.83
2018-04-16T16:16:17.443Z,100973.96
2018-04-16T16:18:43.826Z,100984.48
2018-04-16T16:21:09.631Z,100990.56
2018-04-16T16:23:35.459Z,100993.42
2018-04-16T16:26:01.843Z,101003.25
2018-04-16T16:28:27.821Z,101002.19
2018-04-16T16:30:54.279Z,100984.95
2018-04-16T16:33:20.104Z,101002.52
2018-04-16T16:35:46.542Z,101002.75
2018-04-16T16:38:12.543Z,101005.28
2018-04-16T16:40:38.375Z,100999.96
2018-04-16T16:43:04.219Z,101008.36
2018-04-16T16:45:30.674Z,101013.11
2018-04-16T16:47:56.536Z,101005.88
2018-04-16T16:50:22.352Z,101012.12
2018-04-16T16:52:48.161Z,101016.59
2018-04-16T16:55:15.029Z,101020.21
2018-04-16T16:57:41.639Z,101021.53
2018-04-16T17:00:07.467Z,101025.22
2018-04-16T17:02:33.996Z,101027.28
2018-04-16T17:04:59.846Z,101040.27
2018-04-16T17:07:25.733Z,101043.74
2018-04-16T17:09:51.589Z,101050.63
2018-04-16T17:12:17.511Z,101045.03
2018-04-16T17:14:43.361Z,101046.36
2018-04-16T17:17:09.347Z,101043.94
2018-04-16T17:19:35.235Z,101039.17
2018-04-16T17:22:02.654Z,101045.14
2018-04-16T17:24:28.589Z,101055.15
2018-04-16T17:26:54.491Z,101060.81
2018-04-16T17:29:20.380Z,101072.89
2018-04-16T17:31:47.566Z,101074.48
2018-04-16T17:34:13.460Z,101076.82
2018-04-16T17:36:39.296Z,101078.55
2018-04-16T17:39:05.184Z,101083.73
2018-04-16T17:41:31.014Z,101085.30
2018-04-16T17:43:57.473Z,101088.86
2018-04-16T17:46:23.380Z,101092.25
2018-04-16T17:48:49.282Z,101094.63
2018-04-16T17:51:15.985Z,101097.33
2018-04-16T17:53:41.887Z,101107.23
2018-04-16T17:56:08.602Z,101104.06
2018-04-16T17:58:34.486Z,101117.46
2018-04-16T18:01:00.418Z,101120.48
2018-04-16T18:03:27.976Z,101133.41
2018-04-16T18:05:55.141Z,101123.19
2018-04-16T18:08:21.055Z,101107.01
2018-04-16T18:10:47.633Z,101130.86
2018-04-16T18:13:13.491Z,101135.39
2018-04-16T18:15:39.697Z,101144.37
2018-04-16T18:18:05.534Z,101150.41
2018-04-16T18:20:31.409Z,101151.99
2018-04-16T18:22:57.223Z,101157.05
2018-04-16T18:25:23.064Z,101160.13
2018-04-16T18:27:50.184Z,101170.41
2018-04-16T18:30:16.354Z,101179.52
2018-04-16T18:32:42.250Z,101184.98
2018-04-16T18:35:08.065Z,101187.00
2018-04-16T18:37:34.274Z,101193.03
2018-04-16T18:40:00.130Z,101193.55
2018-04-16T18:42:27.062Z,101195.36
2018-04-16T18:44:52.950Z,101204.18
2018-04-16T18:47:19.072Z,101204.18
2018-04-16T18:49:44.930Z,101207.33
2018-04-16T18:52:10.851Z,101210.52
2018-04-16T18:54:36.682Z,101212.76
2018-04-16T18:57:03.378Z,101204.38
2018-04-16T18:59:29.334Z,101209.13
2018-04-16T19:01:55.225Z,101210.70
2018-04-16T19:04:21.764Z,101214.79
2018-04-16T19:06:47.613Z,101224.80
2018-04-16T19:09:13.459Z,101220.95
2018-04-16T19:11:39.375Z,101228.72
2018-04-16T19:14:05.930Z,101225.38
2018-04-16T19:16:32.414Z,101224.28
2018-04-16T19:18:59.063Z,101226.77
2018-04-16T19:21:31.043Z,101235.86
2018-04-16T19:23:56.976Z,101237.34
2018-04-16T19:26:22.918Z,101229.58
2018-04-16T19:28:50.115Z,101251.55
2018-04-16T19:31:16.035Z,101251.55
2018-04-16T19:36:43.280Z,101262.72
2018-04-16T19:39:10.707Z,101264.88
2018-04-16T19:41:42.573Z,101264.61
2018-04-16T19:44:08.457Z,101269.09
2018-04-16T19:46:34.440Z,101269.91
2018-04-16T19:49:06.574Z,101275.64
2018-04-16T19:51:32.504Z,101275.20
2018-04-16T19:53:58.774Z,101276.86
2018-04-16T19:56:30.617Z,101278.69
2018-04-16T19:58:56.725Z,101283.28
2018-04-16T20:01:22.828Z,101275.70
2018-04-16T20:03:54.664Z,101280.75
2018-04-16T20:06:21.204Z,101280.54
2018-04-16T20:08:47.207Z,101279.64
2018-04-16T20:11:13.055Z,101287.29
2018-04-16T20:13:38.937Z,101283.72
2018-04-16T20:16:04.794Z,101288.78
2018-04-16T20:18:30.906Z,101284.42
2018-04-16T20:20:59.515Z,101292.08
2018-04-16T20:23:25.521Z,101293.55
2018-04-16T20:25:51.394Z,101296.72
2018-04-16T20:28:17.565Z,101298.80
2018-04-16T20:30:44.210Z,101312.11
2018-04-16T20:33:10.038Z,101315.94
2018-04-16T20:35:35.947Z,101319.88
2018-04-16T20:38:02.172Z,101314.16
2018-04-16T20:40:29.256Z,101314.09
2018-04-16T20:42:56.722Z,101321.83
2018-04-16T20:45:23.879Z,101320.66
2018-04-16T20:47:50.153Z,101323.73
2018-04-16T20:50:16.120Z,101326.73
2018-04-16T20:52:42.353Z,101325.47
2018-04-16T20:55:08.294Z,101323.94
2018-04-16T20:57:36.004Z,101318.48
2018-04-16T21:00:02.204Z,101321.75
2018-04-16T21:02:29.609Z,101329.91
2018-04-16T21:04:55.557Z,101338.53
2018-04-16T21:07:21.998Z,101338.40
2018-04-16T21:09:51.074Z,101336.97
2018-04-16T21:12:17.304Z,101345.07
2018-04-16T21:14:43.251Z,101343.21
2018-04-16T21:17:09.296Z,101351.14
2018-04-16T21:19:35.317Z,101355.03
2018-04-16T21:22:01.392Z,101362.91
2018-04-16T21:24:27.233Z,101357.39
2018-04-16T21:26:53.207Z,101365.14
2018-04-16T21:29:20.345Z,101364.52
2018-04-16T21:31:46.611Z,101368.66
2018-04-16T21:34:13.028Z,101363.97
2018-04-16T21:36:40.936Z,101371.59
2018-04-16T21:39:06.919Z,101369.88
2018-04-16T21:41:34.658Z,101376.36
2018-04-16T21:44:01.516Z,101383.71
2018-04-16T21:46:27.413Z,101384.05
2018-04-16T21:48:53.249Z,101389.42
2018-04-16T21:51:19.317Z,101388.22
2018-04-16T21:53:46.319Z,101388.22
2018-04-16T21:56:12.944Z,101398.59
2018-04-16T21:58:40.309Z,101402.03
2018-04-16T22:01:06.362Z,101397.11
2018-04-16T22:03:32.181Z,101407.41
2018-04-16T22:05:58.050Z,101412.67
2018-04-16T22:08:24.020Z,101408.31
2018-04-16T22:10:49.842Z,101409.28
2018-04-16T22:13:15.699Z,101408.23
2018-04-16T22:15:41.516Z,101407.50
2018-04-16T22:18:07.325Z,101397.91
2018-04-16T22:20:33.488Z,101406.92
2018-04-16T22:22:59.967Z,101413.59
2018-04-16T22:25:25.765Z,101426.72
2018-04-16T22:27:51.767Z,101409.41
2018-04-16T22:30:17.610Z,101419.82
2018-04-16T22:32:43.634Z,101426.19
2018-04-16T22:35:10.325Z,101428.73
2018-04-16T22:37:36.189Z,101423.97
2018-04-16T22:40:02.083Z,101436.45
2018-04-16T22:42:28.724Z,101432.45
2018-04-16T22:44:54.844Z,101435.16
2018-04-16T22:47:20.711Z,101441.27
2018-04-16T22:49:46.507Z,101447.52
2018-04-16T22:52:12.310Z,101449.08
2018-04-16T22:54:38.105Z,101455.40
2018-04-16T22:57:04.025Z,101445.81
2018-04-16T22:59:29.822Z,101452.10
2018-04-16T23:01:55.610Z,101449.64
2018-04-16T23:04:21.426Z,101449.27
2018-04-16T23:06:47.221Z,101446.77
2018-04-16T23:09:20.075Z,101453.95
2018-04-16T23:11:46.413Z,101447.80
2018-04-16T23:14:19.214Z,101459.77
2018-04-16T23:16:45.017Z,101462.62
2018-04-16T23:19:10.834Z,101463.27
2018-04-16T23:21:36.622Z,101467.41
2018-04-16T23:24:02.438Z,101472.17
2018-04-16T23:26:28.280Z,101477.87
2018-04-16T23:28:54.072Z,101477.02
2018-04-16T23:31:19.874Z,101479.95
2018-04-16T23:33:45.851Z,101481.13
2018-04-16T23:36:11.676Z,101482.75
2018-04-16T23:38:37.450Z,101487.14
2018-04-16T23:41:03.268Z,101486.52
2018-04-16T23:43:29.059Z,101491.30
2018-04-16T23:45:54.834Z,101498.35
2018-04-16T23:48:20.762Z,101498.66
2018-04-16T23:50:46.569Z,101499.92
2018-04-16T23:53:12.363Z,101496.35
2018-04-16T23:55:38.352Z,101499.85
2018-04-16T23:58:04.167Z,101503.05
